Iacsonvilla, FL (32257)

07:28 PM EST die 18o December, anno 2014 (GMT -0500)
Pickwick Park | Change Station
CLOSE
Current Station
Personal Weather Stations
Location: Jacksonville, FL
Elevation: 30 ft
Nearby Weather Stations

Elev 30 ft 30.21 °N, 81.62 °W | Updated 25 seconds ago

Plerumque Nubila
Plerumque Nubila
53.1 °F
Feels Like 53.1 °F
N
0.0
Ventus Variabilis Ventus from Aquilo
Gusts 0.0 mph

Hodie
High -- | Low -- °F
--% Chance of Precip.
Yesterday
High -- | Low -- °F
Precip. -- in
7:16 AM 5:29 PM
Waning Crescent, 11% visible
Pressio 30.10 in
Visibilitas 10.0 milia passuum
Clouds Plerumque Nubila 25000 ft
Frigus in quo Ros apparet 36 °F
Umor 52%
Rainfall 0.00 in
Snow Depth Not available.
UV 0 out of 12
Pollen 2.10 out of 12
Air Quality Not available.
Flu Activity Not available.
METAR KNIP 182353Z 00000KT 10SM BKN250 16/08 A3011 RMK AO2 SLP191 T01610078 10189 20156 53002

More Conditions Fewer Conditions

Pressio 30.10 in
Visibilitas 10.0 milia passuum
Clouds Plerumque Nubila 25000 ft
Frigus in quo Ros apparet 36 °F
Umor 52%
Rainfall 0.00 in
Snow Depth Not available.
UV 0 out of 12
Pollen 2.10 out of 12
Air Quality Not available.
Flu Activity Not available.
METAR KNIP 182353Z 00000KT 10SM BKN250 16/08 A3011 RMK AO2 SLP191 T01610078 10189 20156 53002

More Conditions Fewer Conditions

10-Day Weather Forecast

Almanac

Astronomy

Dec. 18, 2014 Rise Set
Actual Time
Civil Twilight
Nautical Twilight
Astronomical Twilight
Moon
Length Of Visible Light
Length of Day
Tomorrow will be .
, % of the Moon is Illuminated

Today's Extremes

State Highs State Lows

Community

WunderPhotos

Upload Photos

1,779,016 photos uploaded!

WunderBlogs® & News

Nearby

Air Quality

  Air Quality AQ Index Pollutant
Not available.

Snow Depth

Station Depth Elevation

Earthquake Activity

City Distance Mag. Time & Date
Minimum magnitude displayed is 2.5.

Coastal Water Temperatures

Locus Calor

Nearby Weather Stations